Pagrindinis puslapis
METAR-TAF:

METAR-TAF

Oro uostai :

Delta Junction-Fort Greely, Aliaska, Jungtinės Amerikos Valstijos

platuma: 64-00N, ilguma: 145-44W, Aukštis: 389 m

Dabartinis oras

Ataskaita buvo paskelbta 29 minutes, ne 17:53 UTC
Vėjas 14 kt iš Rytų/Pietryčių
Temperatūra -26°C
Drėgmė 76%
Slėgis 1014 hPa
Matomumas: 16.1 km
Su prošvaistėmis ne aukštis 5000 ft

METAR: PABI 161753Z 11014KT 10SM BKN050 M26/M29 A2995 RMK AO2 PK WND 12026/1710 SLP215 T12561294 11256 21311 53006

Laikas: 09:22 (18:22 UTC)

Prognozė

Ataskaita buvo paskelbta 17 minutes, ne 18:05 UTC
Prognozė galioja nuo 15 metu 18 UTC su 16 metu 20 UTC
Vėjas 9 kt iš Rytų/Pietryčių
Matomumas: 1714 m
Giedras dangus

TAF: PABI 151805Z 1518/1620 12009KT 9999 SKC QNH2976INS TXM24/1600Z TNM38/1519Z LAST NO AMDS AFT 1518 NEXT 1714 FOR MIL USE ONLY

Orai ataskaitas ir orų prognozės (METAR, TAF).

turimą stotys yra geltonos ir raudonos taškus žemėlapyje.

Perkelti pele per norėdami pamatyti stoties vardą.

Tada spustelėkite, norėdami matyti oro stebėjimo ir prognozės.

Norėdami pakeisti žemėlapį: spustelėkite ant žalios mygtukų su juodo kryžiaus žemyn,; žalią mygtuką su brūkšneliu, jei norite nutolinti; arba žalių rodyklių gretimoms žemėlapius.


METAR-TAF: